sensor_id;sensor_type;location;lat;lon;timestamp;pressure;altitude;pressure_sealevel;temperature;humidity
9889;BME280;4983;42.112;24.738;2023-08-06T00:00:07;98267.19;;;26.59;100.00
9889;BME280;4983;42.112;24.738;2023-08-06T00:02:35;98269.69;;;26.71;100.00
9889;BME280;4983;42.112;24.738;2023-08-06T00:05:03;98263.28;;;26.70;100.00
9889;BME280;4983;42.112;24.738;2023-08-06T00:07:30;98258.84;;;26.74;100.00
9889;BME280;4983;42.112;24.738;2023-08-06T00:09:57;98257.47;;;26.72;100.00
9889;BME280;4983;42.112;24.738;2023-08-06T00:12:26;98249.16;;;26.62;100.00
9889;BME280;4983;42.112;24.738;2023-08-06T00:14:54;98248.59;;;26.65;100.00
9889;BME280;4983;42.112;24.738;2023-08-06T00:17:21;98247.22;;;26.62;100.00
9889;BME280;4983;42.112;24.738;2023-08-06T00:19:48;98251.91;;;26.72;100.00
9889;BME280;4983;42.112;24.738;2023-08-06T00:22:15;98244.97;;;26.64;100.00
9889;BME280;4983;42.112;24.738;2023-08-06T00:24:43;98242.78;;;26.56;100.00
9889;BME280;4983;42.112;24.738;2023-08-06T00:27:10;98247.47;;;26.51;100.00
9889;BME280;4983;42.112;24.738;2023-08-06T00:29:39;98243.34;;;26.38;100.00
9889;BME280;4983;42.112;24.738;2023-08-06T00:32:06;98253.03;;;26.46;100.00
9889;BME280;4983;42.112;24.738;2023-08-06T00:34:33;98264.13;;;26.46;100.00
9889;BME280;4983;42.112;24.738;2023-08-06T00:37:01;98257.50;;;26.42;100.00
9889;BME280;4983;42.112;24.738;2023-08-06T00:39:28;98260.25;;;26.57;100.00
9889;BME280;4983;42.112;24.738;2023-08-06T00:41:55;98253.88;;;26.36;100.00
9889;BME280;4983;42.112;24.738;2023-08-06T00:44:24;98247.22;;;26.62;100.00
9889;BME280;4983;42.112;24.738;2023-08-06T00:46:52;98244.44;;;26.42;100.00
9889;BME280;4983;42.112;24.738;2023-08-06T00:49:20;98240.88;;;26.12;100.00
9889;BME280;4983;42.112;24.738;2023-08-06T00:51:47;98246.91;;;25.69;100.00
9889;BME280;4983;42.112;24.738;2023-08-06T00:54:15;98239.22;;;26.01;100.00
9889;BME280;4983;42.112;24.738;2023-08-06T00:56:43;98235.59;;;25.85;100.00
9889;BME280;4983;42.112;24.738;2023-08-06T00:59:11;98215.34;;;26.15;100.00
9889;BME280;4983;42.112;24.738;2023-08-06T01:01:40;98214.50;;;26.19;100.00
9889;BME280;4983;42.112;24.738;2023-08-06T01:04:08;98218.13;;;25.95;100.00
9889;BME280;4983;42.112;24.738;2023-08-06T01:06:43;98209.78;;;26.05;100.00
9889;BME280;4983;42.112;24.738;2023-08-06T01:09:23;98214.53;;;25.99;100.00
9889;BME280;4983;42.112;24.738;2023-08-06T01:12:00;98214.78;;;25.93;100.00
9889;BME280;4983;42.112;24.738;2023-08-06T01:14:37;98220.03;;;25.74;100.00
9889;BME280;4983;42.112;24.738;2023-08-06T01:17:12;98219.47;;;25.82;100.00
9889;BME280;4983;42.112;24.738;2023-08-06T01:19:41;98220.88;;;26.05;100.00
9889;BME280;4983;42.112;24.738;2023-08-06T01:22:10;98219.50;;;26.02;100.00
9889;BME280;4983;42.112;24.738;2023-08-06T01:24:37;98229.22;;;26.15;100.00
9889;BME280;4983;42.112;24.738;2023-08-06T01:27:08;98233.94;;;25.94;100.00
9889;BME280;4983;42.112;24.738;2023-08-06T01:29:41;98243.03;;;25.80;100.00
9889;BME280;4983;42.112;24.738;2023-08-06T01:32:12;98246.13;;;26.08;100.00
9889;BME280;4983;42.112;24.738;2023-08-06T01:34:43;98220.34;;;26.13;100.00
9889;BME280;4983;42.112;24.738;2023-08-06T01:37:13;98207.59;;;26.12;100.00
9889;BME280;4983;42.112;24.738;2023-08-06T01:39:42;98206.47;;;26.13;100.00
9889;BME280;4983;42.112;24.738;2023-08-06T01:42:10;98199.53;;;26.10;100.00
9889;BME280;4983;42.112;24.738;2023-08-06T01:44:37;98190.69;;;25.98;100.00
9889;BME280;4983;42.112;24.738;2023-08-06T01:47:05;98184.56;;;26.16;100.00
9889;BME280;4983;42.112;24.738;2023-08-06T01:49:32;98181.75;;;26.26;100.00
9889;BME280;4983;42.112;24.738;2023-08-06T01:52:00;98182.88;;;26.20;100.00
9889;BME280;4983;42.112;24.738;2023-08-06T01:54:29;98196.19;;;26.13;100.00
9889;BME280;4983;42.112;24.738;2023-08-06T01:56:56;98205.94;;;26.01;100.00
9889;BME280;4983;42.112;24.738;2023-08-06T01:59:27;98206.22;;;26.09;100.00
9889;BME280;4983;42.112;24.738;2023-08-06T02:01:54;98226.16;;;26.06;100.00
9889;BME280;4983;42.112;24.738;2023-08-06T02:04:24;98235.06;;;25.93;100.00
9889;BME280;4983;42.112;24.738;2023-08-06T02:06:52;98242.25;;;26.09;100.00
9889;BME280;4983;42.112;24.738;2023-08-06T02:09:19;98219.22;;;26.04;100.00
9889;BME280;4983;42.112;24.738;2023-08-06T02:11:47;98197.34;;;25.97;100.00
9889;BME280;4983;42.112;24.738;2023-08-06T02:14:17;98212.56;;;26.05;100.00
9889;BME280;4983;42.112;24.738;2023-08-06T02:16:44;98209.25;;;25.83;100.00
9889;BME280;4983;42.112;24.738;2023-08-06T02:19:16;98203.66;;;25.88;100.00
9889;BME280;4983;42.112;24.738;2023-08-06T02:21:43;98208.94;;;25.84;100.00
9889;BME280;4983;42.112;24.738;2023-08-06T02:24:14;98215.31;;;25.85;100.00
9889;BME280;4983;42.112;24.738;2023-08-06T02:26:41;98204.22;;;25.80;100.00
9889;BME280;4983;42.112;24.738;2023-08-06T02:29:10;98203.13;;;25.81;100.00
9889;BME280;4983;42.112;24.738;2023-08-06T02:31:37;98192.56;;;25.58;100.00
9889;BME280;4983;42.112;24.738;2023-08-06T02:34:05;98195.63;;;25.56;100.00
9889;BME280;4983;42.112;24.738;2023-08-06T02:36:33;98197.03;;;25.59;100.00
9889;BME280;4983;42.112;24.738;2023-08-06T02:39:00;98199.22;;;25.62;100.00
9889;BME280;4983;42.112;24.738;2023-08-06T02:41:27;98187.59;;;25.55;100.00
9889;BME280;4983;42.112;24.738;2023-08-06T02:43:54;98198.13;;;25.48;100.00
9889;BME280;4983;42.112;24.738;2023-08-06T02:46:23;98187.28;;;25.41;100.00
9889;BME280;4983;42.112;24.738;2023-08-06T02:48:50;98185.66;;;25.45;100.00
9889;BME280;4983;42.112;24.738;2023-08-06T02:51:17;98197.00;;;25.49;100.00
9889;BME280;4983;42.112;24.738;2023-08-06T02:53:45;98196.44;;;25.47;100.00
9889;BME280;4983;42.112;24.738;2023-08-06T02:56:12;98195.34;;;25.43;100.00
9889;BME280;4983;42.112;24.738;2023-08-06T02:58:39;98189.00;;;25.62;100.00
9889;BME280;4983;42.112;24.738;2023-08-06T03:01:06;98186.50;;;25.61;100.00
9889;BME280;4983;42.112;24.738;2023-08-06T03:03:35;98189.53;;;25.54;100.00
9889;BME280;4983;42.112;24.738;2023-08-06T03:06:02;98195.63;;;25.61;100.00
9889;BME280;4983;42.112;24.738;2023-08-06T03:08:29;98191.75;;;25.52;100.00
9889;BME280;4983;42.112;24.738;2023-08-06T03:10:57;98192.31;;;25.59;100.00
9889;BME280;4983;42.112;24.738;2023-08-06T03:13:24;98195.06;;;25.59;100.00
9889;BME280;4983;42.112;24.738;2023-08-06T03:15:52;98193.13;;;25.50;100.00
9889;BME280;4983;42.112;24.738;2023-08-06T03:18:20;98187.56;;;25.40;100.00
9889;BME280;4983;42.112;24.738;2023-08-06T03:20:48;98185.88;;;25.29;100.00
9889;BME280;4983;42.112;24.738;2023-08-06T03:23:16;98180.63;;;25.27;100.00
9889;BME280;4983;42.112;24.738;2023-08-06T03:25:43;98186.53;;;24.79;100.00
9889;BME280;4983;42.112;24.738;2023-08-06T03:28:10;98196.19;;;24.72;100.00
9889;BME280;4983;42.112;24.738;2023-08-06T03:30:37;98200.28;;;24.59;100.00
9889;BME280;4983;42.112;24.738;2023-08-06T03:33:05;98204.34;;;25.03;100.00
9889;BME280;4983;42.112;24.738;2023-08-06T03:35:33;98204.59;;;24.97;100.00
9889;BME280;4983;42.112;24.738;2023-08-06T03:38:03;98199.91;;;25.07;100.00
9889;BME280;4983;42.112;24.738;2023-08-06T03:40:30;98197.53;;;25.26;100.00
9889;BME280;4983;42.112;24.738;2023-08-06T03:42:57;98194.44;;;25.22;100.00
9889;BME280;4983;42.112;24.738;2023-08-06T03:45:24;98203.00;;;25.21;100.00
9889;BME280;4983;42.112;24.738;2023-08-06T03:47:52;98203.59;;;25.28;100.00
9889;BME280;4983;42.112;24.738;2023-08-06T03:50:19;98203.09;;;25.36;100.00
9889;BME280;4983;42.112;24.738;2023-08-06T03:52:46;98199.78;;;25.44;100.00
9889;BME280;4983;42.112;24.738;2023-08-06T03:55:14;98197.53;;;25.36;100.00
9889;BME280;4983;42.112;24.738;2023-08-06T03:57:42;98195.63;;;25.46;100.00
9889;BME280;4983;42.112;24.738;2023-08-06T04:00:09;98206.41;;;25.38;100.00
9889;BME280;4983;42.112;24.738;2023-08-06T04:02:37;98218.25;;;25.23;100.00
9889;BME280;4983;42.112;24.738;2023-08-06T04:05:04;98206.13;;;25.34;100.00
9889;BME280;4983;42.112;24.738;2023-08-06T04:07:31;98219.06;;;25.19;100.00
9889;BME280;4983;42.112;24.738;2023-08-06T04:09:59;98208.06;;;25.24;100.00
9889;BME280;4983;42.112;24.738;2023-08-06T04:12:29;98215.53;;;25.28;100.00
9889;BME280;4983;42.112;24.738;2023-08-06T04:14:57;98206.13;;;25.39;100.00
9889;BME280;4983;42.112;24.738;2023-08-06T04:17:24;98208.97;;;24.88;100.00
9889;BME280;4983;42.112;24.738;2023-08-06T04:19:53;98225.19;;;24.59;100.00
9889;BME280;4983;42.112;24.738;2023-08-06T04:22:21;98217.75;;;24.70;100.00
9889;BME280;4983;42.112;24.738;2023-08-06T04:24:48;98222.88;;;25.03;100.00
9889;BME280;4983;42.112;24.738;2023-08-06T04:27:16;98247.41;;;25.36;100.00
9889;BME280;4983;42.112;24.738;2023-08-06T04:29:44;98228.00;;;25.31;100.00
9889;BME280;4983;42.112;24.738;2023-08-06T04:32:12;98243.44;;;25.12;100.00
9889;BME280;4983;42.112;24.738;2023-08-06T04:34:40;98228.56;;;25.33;100.00
9889;BME280;4983;42.112;24.738;2023-08-06T04:37:07;98230.50;;;25.37;100.00
9889;BME280;4983;42.112;24.738;2023-08-06T04:39:34;98221.41;;;25.57;100.00
9889;BME280;4983;42.112;24.738;2023-08-06T04:42:01;98214.47;;;25.44;100.00
9889;BME280;4983;42.112;24.738;2023-08-06T04:44:28;98207.00;;;25.80;100.00
9889;BME280;4983;42.112;24.738;2023-08-06T04:46:57;98217.81;;;25.81;100.00
9889;BME280;4983;42.112;24.738;2023-08-06T04:49:25;98215.31;;;25.75;100.00
9889;BME280;4983;42.112;24.738;2023-08-06T04:51:52;98224.75;;;25.79;100.00
9889;BME280;4983;42.112;24.738;2023-08-06T04:54:19;98223.91;;;25.78;100.00
9889;BME280;4983;42.112;24.738;2023-08-06T04:56:46;98211.72;;;25.74;100.00
9889;BME280;4983;42.112;24.738;2023-08-06T04:59:13;98214.47;;;25.64;100.00
9889;BME280;4983;42.112;24.738;2023-08-06T05:01:40;98235.28;;;25.72;100.00
9889;BME280;4983;42.112;24.738;2023-08-06T05:04:08;98244.16;;;25.79;100.00
9889;BME280;4983;42.112;24.738;2023-08-06T05:06:36;98240.81;;;25.67;100.00
9889;BME280;4983;42.112;24.738;2023-08-06T05:09:04;98228.59;;;25.63;100.00
9889;BME280;4983;42.112;24.738;2023-08-06T05:11:31;98216.69;;;25.72;100.00
9889;BME280;4983;42.112;24.738;2023-08-06T05:13:59;98220.84;;;25.70;100.00
9889;BME280;4983;42.112;24.738;2023-08-06T05:16:27;98226.94;;;25.57;100.00
9889;BME280;4983;42.112;24.738;2023-08-06T05:18:54;98225.53;;;25.49;100.00
9889;BME280;4983;42.112;24.738;2023-08-06T05:21:23;98238.00;;;25.42;100.00
9889;BME280;4983;42.112;24.738;2023-08-06T05:23:50;98244.78;;;25.14;100.00
9889;BME280;4983;42.112;24.738;2023-08-06T05:26:17;98255.84;;;25.04;100.00
9889;BME280;4983;42.112;24.738;2023-08-06T05:28:45;98229.41;;;24.72;100.00
9889;BME280;4983;42.112;24.738;2023-08-06T05:31:12;98225.38;;;24.53;100.00
9889;BME280;4983;42.112;24.738;2023-08-06T05:33:39;98229.59;;;24.60;100.00
9889;BME280;4983;42.112;24.738;2023-08-06T05:36:06;98229.91;;;24.64;100.00
9889;BME280;4983;42.112;24.738;2023-08-06T05:38:35;98225.09;;;24.49;100.00
9889;BME280;4983;42.112;24.738;2023-08-06T05:41:03;98209.09;;;24.15;100.00
9889;BME280;4983;42.112;24.738;2023-08-06T05:43:30;98219.56;;;24.08;100.00
9889;BME280;4983;42.112;24.738;2023-08-06T05:45:57;98214.38;;;24.16;100.00
9889;BME280;4983;42.112;24.738;2023-08-06T05:48:24;98205.66;;;23.98;100.00
9889;BME280;4983;42.112;24.738;2023-08-06T05:50:53;98197.88;;;23.90;100.00
9889;BME280;4983;42.112;24.738;2023-08-06T05:53:20;98199.88;;;23.99;100.00
9889;BME280;4983;42.112;24.738;2023-08-06T05:55:49;98201.59;;;24.05;100.00
9889;BME280;4983;42.112;24.738;2023-08-06T05:58:16;98202.81;;;23.88;100.00
9889;BME280;4983;42.112;24.738;2023-08-06T06:00:46;98195.47;;;23.72;100.00
9889;BME280;4983;42.112;24.738;2023-08-06T06:03:14;98195.66;;;23.92;100.00
9889;BME280;4983;42.112;24.738;2023-08-06T06:05:42;98197.19;;;24.09;100.00
9889;BME280;4983;42.112;24.738;2023-08-06T06:08:10;98197.53;;;24.18;100.00
9889;BME280;4983;42.112;24.738;2023-08-06T06:10:37;98206.25;;;24.41;100.00
9889;BME280;4983;42.112;24.738;2023-08-06T06:13:06;98199.78;;;24.26;100.00
9889;BME280;4983;42.112;24.738;2023-08-06T06:15:33;98191.75;;;23.88;100.00
9889;BME280;4983;42.112;24.738;2023-08-06T06:18:02;98196.84;;;24.01;100.00
9889;BME280;4983;42.112;24.738;2023-08-06T06:20:31;98185.84;;;24.11;100.00
9889;BME280;4983;42.112;24.738;2023-08-06T06:22:58;98198.44;;;23.92;100.00
9889;BME280;4983;42.112;24.738;2023-08-06T06:25:25;98198.69;;;24.27;100.00
9889;BME280;4983;42.112;24.738;2023-08-06T06:27:52;98188.91;;;24.14;100.00
9889;BME280;4983;42.112;24.738;2023-08-06T06:30:21;98191.59;;;23.99;100.00
9889;BME280;4983;42.112;24.738;2023-08-06T06:32:48;98208.91;;;24.26;100.00
9889;BME280;4983;42.112;24.738;2023-08-06T06:35:16;98223.66;;;24.37;100.00
9889;BME280;4983;42.112;24.738;2023-08-06T06:37:43;98229.75;;;24.44;100.00
9889;BME280;4983;42.112;24.738;2023-08-06T06:40:11;98219.09;;;24.21;100.00
9889;BME280;4983;42.112;24.738;2023-08-06T06:42:38;98211.19;;;23.98;100.00
9889;BME280;4983;42.112;24.738;2023-08-06T06:45:06;98210.72;;;24.06;100.00
9889;BME280;4983;42.112;24.738;2023-08-06T06:47:34;98211.22;;;24.39;100.00
9889;BME280;4983;42.112;24.738;2023-08-06T06:50:02;98203.47;;;24.41;100.00
9889;BME280;4983;42.112;24.738;2023-08-06T06:52:30;98206.75;;;24.33;100.00
9889;BME280;4983;42.112;24.738;2023-08-06T06:54:57;98202.31;;;24.32;100.00
9889;BME280;4983;42.112;24.738;2023-08-06T06:57:24;98204.09;;;24.07;100.00
9889;BME280;4983;42.112;24.738;2023-08-06T06:59:51;98204.03;;;24.02;100.00
9889;BME280;4983;42.112;24.738;2023-08-06T07:02:18;98202.63;;;24.41;100.00
9889;BME280;4983;42.112;24.738;2023-08-06T07:04:47;98207.41;;;24.55;100.00
9889;BME280;4983;42.112;24.738;2023-08-06T07:07:14;98217.19;;;24.68;100.00
9889;BME280;4983;42.112;24.738;2023-08-06T07:09:41;98222.31;;;24.44;100.00
9889;BME280;4983;42.112;24.738;2023-08-06T07:12:08;98225.25;;;24.69;100.00
9889;BME280;4983;42.112;24.738;2023-08-06T07:14:36;98221.97;;;24.82;100.00
9889;BME280;4983;42.112;24.738;2023-08-06T07:17:03;98231.47;;;24.50;100.00
9889;BME280;4983;42.112;24.738;2023-08-06T07:19:30;98230.75;;;24.64;100.00
9889;BME280;4983;42.112;24.738;2023-08-06T07:21:59;98231.72;;;24.90;100.00
9889;BME280;4983;42.112;24.738;2023-08-06T07:24:26;98241.72;;;25.01;100.00
9889;BME280;4983;42.112;24.738;2023-08-06T07:26:53;98251.53;;;25.28;100.00
9889;BME280;4983;42.112;24.738;2023-08-06T07:29:20;98260.16;;;25.37;100.00
9889;BME280;4983;42.112;24.738;2023-08-06T07:31:48;98267.31;;;25.28;100.00
9889;BME280;4983;42.112;24.738;2023-08-06T07:34:16;98262.94;;;25.47;100.00
9889;BME280;4983;42.112;24.738;2023-08-06T07:36:43;98249.13;;;25.62;100.00
9889;BME280;4983;42.112;24.738;2023-08-06T07:39:12;98228.34;;;25.84;100.00
9889;BME280;4983;42.112;24.738;2023-08-06T07:41:39;98234.16;;;25.88;100.00
9889;BME280;4983;42.112;24.738;2023-08-06T07:44:07;98238.63;;;25.89;100.00
9889;BME280;4983;42.112;24.738;2023-08-06T07:46:34;98242.22;;;25.69;100.00
9889;BME280;4983;42.112;24.738;2023-08-06T07:49:01;98250.19;;;25.36;100.00
9889;BME280;4983;42.112;24.738;2023-08-06T07:51:28;98239.84;;;25.16;100.00
9889;BME280;4983;42.112;24.738;2023-08-06T07:53:55;98234.47;;;24.90;100.00
9889;BME280;4983;42.112;24.738;2023-08-06T07:56:24;98248.06;;;25.01;100.00
9889;BME280;4983;42.112;24.738;2023-08-06T07:58:52;98256.84;;;24.83;100.00
9889;BME280;4983;42.112;24.738;2023-08-06T08:01:19;98262.41;;;24.88;100.00
9889;BME280;4983;42.112;24.738;2023-08-06T08:03:46;98267.56;;;24.70;100.00
9889;BME280;4983;42.112;24.738;2023-08-06T08:06:13;98269.03;;;24.46;100.00
9889;BME280;4983;42.112;24.738;2023-08-06T08:08:40;98266.75;;;24.33;100.00
9889;BME280;4983;42.112;24.738;2023-08-06T08:11:08;98265.59;;;24.24;100.00
9889;BME280;4983;42.112;24.738;2023-08-06T08:13:36;98263.69;;;24.29;100.00
9889;BME280;4983;42.112;24.738;2023-08-06T08:16:04;98267.84;;;24.32;100.00
9889;BME280;4983;42.112;24.738;2023-08-06T08:18:31;98265.94;;;24.37;100.00
9889;BME280;4983;42.112;24.738;2023-08-06T08:20:58;98266.19;;;24.31;100.00
9889;BME280;4983;42.112;24.738;2023-08-06T08:23:25;98266.03;;;24.47;100.00
9889;BME280;4983;42.112;24.738;2023-08-06T08:25:52;98267.22;;;24.56;100.00
9889;BME280;4983;42.112;24.738;2023-08-06T08:28:21;98274.31;;;24.47;100.00
9889;BME280;4983;42.112;24.738;2023-08-06T08:30:50;98272.09;;;24.44;100.00
9889;BME280;4983;42.112;24.738;2023-08-06T08:33:17;98260.03;;;24.60;100.00
9889;BME280;4983;42.112;24.738;2023-08-06T08:35:45;98259.25;;;24.70;100.00
9889;BME280;4983;42.112;24.738;2023-08-06T08:38:12;98253.03;;;24.48;100.00
9889;BME280;4983;42.112;24.738;2023-08-06T08:40:45;98256.16;;;24.61;100.00
9889;BME280;4983;42.112;24.738;2023-08-06T08:43:13;98249.63;;;24.77;100.00
9889;BME280;4983;42.112;24.738;2023-08-06T08:45:42;98252.91;;;24.69;100.00
9889;BME280;4983;42.112;24.738;2023-08-06T08:48:12;98256.66;;;24.95;100.00
9889;BME280;4983;42.112;24.738;2023-08-06T08:50:41;98250.19;;;24.79;100.00
9889;BME280;4983;42.112;24.738;2023-08-06T08:53:10;98252.78;;;24.96;100.00
9889;BME280;4983;42.112;24.738;2023-08-06T08:55:38;98252.00;;;25.10;100.00
9889;BME280;4983;42.112;24.738;2023-08-06T08:58:05;98251.44;;;25.13;100.00
9889;BME280;4983;42.112;24.738;2023-08-06T09:00:32;98255.44;;;25.37;100.00
9889;BME280;4983;42.112;24.738;2023-08-06T09:03:02;98240.53;;;25.73;100.00
9889;BME280;4983;42.112;24.738;2023-08-06T09:05:33;98231.72;;;26.21;100.00
9889;BME280;4983;42.112;24.738;2023-08-06T09:08:02;98230.56;;;26.62;100.00
9889;BME280;4983;42.112;24.738;2023-08-06T09:10:30;98223.19;;;27.01;100.00
9889;BME280;4983;42.112;24.738;2023-08-06T09:12:58;98229.50;;;27.22;100.00
9889;BME280;4983;42.112;24.738;2023-08-06T09:15:27;98218.97;;;27.14;100.00
9889;BME280;4983;42.112;24.738;2023-08-06T09:17:54;98215.56;;;27.32;100.00
9889;BME280;4983;42.112;24.738;2023-08-06T09:20:22;98208.63;;;27.73;100.00
9889;BME280;4983;42.112;24.738;2023-08-06T09:22:52;98201.09;;;27.73;98.67
9889;BME280;4983;42.112;24.738;2023-08-06T09:25:21;98182.69;;;27.87;95.25
9889;BME280;4983;42.112;24.738;2023-08-06T09:27:51;98199.78;;;28.33;97.91
9889;BME280;4983;42.112;24.738;2023-08-06T09:30:29;98205.75;;;28.73;100.00
9889;BME280;4983;42.112;24.738;2023-08-06T09:32:57;98165.25;;;28.62;84.71
9889;BME280;4983;42.112;24.738;2023-08-06T09:35:28;98175.72;;;28.70;86.12
9889;BME280;4983;42.112;24.738;2023-08-06T09:38:05;98183.97;;;29.04;85.66
9889;BME280;4983;42.112;24.738;2023-08-06T09:40:34;98162.56;;;28.76;81.09
9889;BME280;4983;42.112;24.738;2023-08-06T09:43:01;98159.75;;;28.57;82.72
9889;BME280;4983;42.112;24.738;2023-08-06T09:45:30;98167.13;;;28.15;82.60
9889;BME280;4983;42.112;24.738;2023-08-06T09:48:00;98180.00;;;28.34;87.76
9889;BME280;4983;42.112;24.738;2023-08-06T09:50:29;98140.50;;;28.79;75.25
9889;BME280;4983;42.112;24.738;2023-08-06T09:52:59;98148.47;;;28.91;77.42
9889;BME280;4983;42.112;24.738;2023-08-06T09:55:27;98147.72;;;29.27;79.00
9889;BME280;4983;42.112;24.738;2023-08-06T09:57:55;98151.50;;;29.55;76.87
9889;BME280;4983;42.112;24.738;2023-08-06T10:00:23;98134.69;;;29.92;73.02
9889;BME280;4983;42.112;24.738;2023-08-06T10:02:53;98136.75;;;30.00;75.61
9889;BME280;4983;42.112;24.738;2023-08-06T10:05:22;98122.66;;;30.10;67.11
9889;BME280;4983;42.112;24.738;2023-08-06T10:07:51;98086.78;;;30.17;69.08
9889;BME280;4983;42.112;24.738;2023-08-06T10:10:20;98114.34;;;30.37;71.02
9889;BME280;4983;42.112;24.738;2023-08-06T10:12:49;98084.03;;;30.57;68.52
9889;BME280;4983;42.112;24.738;2023-08-06T10:15:19;98082.28;;;30.75;67.58
9889;BME280;4983;42.112;24.738;2023-08-06T10:17:51;98076.38;;;30.76;63.06
9889;BME280;4983;42.112;24.738;2023-08-06T10:20:20;98061.81;;;30.66;63.01
9889;BME280;4983;42.112;24.738;2023-08-06T10:23:00;98048.06;;;30.69;61.05
9889;BME280;4983;42.112;24.738;2023-08-06T10:25:32;98055.28;;;30.84;61.21
9889;BME280;4983;42.112;24.738;2023-08-06T10:28:00;98071.34;;;31.14;64.96
9889;BME280;4983;42.112;24.738;2023-08-06T10:30:29;98079.41;;;31.51;66.70
9889;BME280;4983;42.112;24.738;2023-08-06T10:32:58;98044.44;;;31.62;62.06
9889;BME280;4983;42.112;24.738;2023-08-06T10:35:31;98040.88;;;31.92;61.07
9889;BME280;4983;42.112;24.738;2023-08-06T10:38:05;98052.13;;;32.00;62.51
9889;BME280;4983;42.112;24.738;2023-08-06T10:40:35;98042.97;;;31.20;56.04
9889;BME280;4983;42.112;24.738;2023-08-06T10:43:03;98066.63;;;30.60;62.69
9889;BME280;4983;42.112;24.738;2023-08-06T10:45:34;98056.31;;;30.74;62.22
9889;BME280;4983;42.112;24.738;2023-08-06T10:48:03;98053.28;;;31.33;60.58
9889;BME280;4983;42.112;24.738;2023-08-06T10:50:30;98033.13;;;31.45;55.29
9889;BME280;4983;42.112;24.738;2023-08-06T10:53:03;98059.00;;;31.15;59.78
9889;BME280;4983;42.112;24.738;2023-08-06T10:55:30;98059.59;;;30.63;56.98
9889;BME280;4983;42.112;24.738;2023-08-06T10:57:59;98058.91;;;30.71;56.36
9889;BME280;4983;42.112;24.738;2023-08-06T11:00:26;98062.41;;;31.25;56.53
9889;BME280;4983;42.112;24.738;2023-08-06T11:02:53;98060.28;;;31.88;57.70
9889;BME280;4983;42.112;24.738;2023-08-06T11:05:21;98037.50;;;32.12;53.29
9889;BME280;4983;42.112;24.738;2023-08-06T11:07:48;98040.34;;;32.20;51.39
9889;BME280;4983;42.112;24.738;2023-08-06T11:10:16;98022.38;;;31.82;53.18
9889;BME280;4983;42.112;24.738;2023-08-06T11:12:44;98026.38;;;31.90;51.77
9889;BME280;4983;42.112;24.738;2023-08-06T11:15:12;98022.28;;;31.96;51.65
9889;BME280;4983;42.112;24.738;2023-08-06T11:17:40;98028.31;;;32.20;52.12
9889;BME280;4983;42.112;24.738;2023-08-06T11:20:08;98022.66;;;32.33;49.18
9889;BME280;4983;42.112;24.738;2023-08-06T11:22:37;98025.13;;;32.04;50.48
9889;BME280;4983;42.112;24.738;2023-08-06T11:25:06;98045.84;;;31.95;51.80
9889;BME280;4983;42.112;24.738;2023-08-06T11:27:33;98040.38;;;31.90;51.96
9889;BME280;4983;42.112;24.738;2023-08-06T11:30:01;98045.53;;;32.27;51.73
9889;BME280;4983;42.112;24.738;2023-08-06T11:32:29;98031.28;;;32.54;50.05
9889;BME280;4983;42.112;24.738;2023-08-06T11:34:56;98018.00;;;32.29;48.05
9889;BME280;4983;42.112;24.738;2023-08-06T11:37:24;98035.31;;;32.00;49.94
9889;BME280;4983;42.112;24.738;2023-08-06T11:39:51;98027.72;;;31.70;48.19
9889;BME280;4983;42.112;24.738;2023-08-06T11:42:18;98046.34;;;31.97;51.12
9889;BME280;4983;42.112;24.738;2023-08-06T11:44:45;98049.28;;;31.48;51.26
9889;BME280;4983;42.112;24.738;2023-08-06T11:47:14;98050.34;;;31.60;49.97
9889;BME280;4983;42.112;24.738;2023-08-06T11:49:44;98040.56;;;31.93;51.23
9889;BME280;4983;42.112;24.738;2023-08-06T11:52:17;98027.41;;;32.33;47.11
9889;BME280;4983;42.112;24.738;2023-08-06T11:54:47;98036.56;;;32.16;48.52
9889;BME280;4983;42.112;24.738;2023-08-06T11:57:15;98032.09;;;31.85;49.63
9889;BME280;4983;42.112;24.738;2023-08-06T11:59:42;98036.69;;;32.11;50.36
9889;BME280;4983;42.112;24.738;2023-08-06T12:02:10;98030.47;;;32.23;48.01
9889;BME280;4983;42.112;24.738;2023-08-06T12:05:01;98036.41;;;32.69;47.48
9889;BME280;4983;42.112;24.738;2023-08-06T12:07:30;98029.94;;;32.43;43.34
9889;BME280;4983;42.112;24.738;2023-08-06T12:09:58;98016.22;;;32.02;44.92
9889;BME280;4983;42.112;24.738;2023-08-06T12:12:25;98038.16;;;32.09;47.58
9889;BME280;4983;42.112;24.738;2023-08-06T12:14:52;98046.69;;;32.04;49.74
9889;BME280;4983;42.112;24.738;2023-08-06T12:17:19;98054.06;;;32.00;49.09
9889;BME280;4983;42.112;24.738;2023-08-06T12:19:46;98055.03;;;31.95;49.49
9889;BME280;4983;42.112;24.738;2023-08-06T12:22:18;98048.66;;;31.73;48.96
9889;BME280;4983;42.112;24.738;2023-08-06T12:24:46;98051.06;;;31.66;50.02
9889;BME280;4983;42.112;24.738;2023-08-06T12:27:14;98043.75;;;31.78;49.47
9889;BME280;4983;42.112;24.738;2023-08-06T12:29:43;98047.44;;;31.87;48.60
9889;BME280;4983;42.112;24.738;2023-08-06T12:32:11;98048.19;;;31.57;49.63
9889;BME280;4983;42.112;24.738;2023-08-06T12:34:38;98047.13;;;31.45;47.27
9889;BME280;4983;42.112;24.738;2023-08-06T12:37:06;98040.38;;;31.24;47.43
9889;BME280;4983;42.112;24.738;2023-08-06T12:39:35;98052.84;;;31.04;50.04
9889;BME280;4983;42.112;24.738;2023-08-06T12:42:03;98029.13;;;31.02;46.58
9889;BME280;4983;42.112;24.738;2023-08-06T12:44:31;98034.91;;;31.19;47.73
9889;BME280;4983;42.112;24.738;2023-08-06T12:46:58;98031.56;;;31.17;47.01
9889;BME280;4983;42.112;24.738;2023-08-06T12:49:25;98046.09;;;31.19;48.30
9889;BME280;4983;42.112;24.738;2023-08-06T12:51:56;98050.84;;;31.18;49.13
9889;BME280;4983;42.112;24.738;2023-08-06T12:54:28;98039.94;;;30.95;46.01
9889;BME280;4983;42.112;24.738;2023-08-06T12:56:56;98059.13;;;31.10;49.34
9889;BME280;4983;42.112;24.738;2023-08-06T12:59:23;98040.13;;;30.98;47.24
9889;BME280;4983;42.112;24.738;2023-08-06T13:01:51;98056.47;;;30.91;49.71
9889;BME280;4983;42.112;24.738;2023-08-06T13:04:18;98069.06;;;31.02;53.10
9889;BME280;4983;42.112;24.738;2023-08-06T13:06:45;98058.97;;;30.93;48.76